createdAt,value
2023-07-15T00:00:23.487Z,19.51
2023-07-15T00:02:55.418Z,19.43
2023-07-15T00:05:36.631Z,19.53
2023-07-15T00:08:05.021Z,19.44
2023-07-15T00:10:34.858Z,19.57
2023-07-15T00:13:03.443Z,19.54
2023-07-15T00:15:30.566Z,19.56
2023-07-15T00:17:59.014Z,19.56
2023-07-15T00:20:26.948Z,19.51
2023-07-15T00:22:55.627Z,19.59
2023-07-15T00:25:23.503Z,19.63
2023-07-15T00:27:51.292Z,19.57
2023-07-15T00:30:22.795Z,19.53
2023-07-15T00:32:52.724Z,19.58
2023-07-15T00:35:32.671Z,19.46
2023-07-15T00:38:00.868Z,19.49
2023-07-15T00:40:29.674Z,19.52
2023-07-15T00:43:53.109Z,19.46
2023-07-15T00:46:20.919Z,19.46
2023-07-15T00:49:30.801Z,19.35
2023-07-15T00:52:03.537Z,19.43
2023-07-15T00:54:35.323Z,19.36
2023-07-15T00:57:04.509Z,19.38
2023-07-15T00:59:32.641Z,19.38
2023-07-15T01:02:01.070Z,19.44
2023-07-15T01:04:28.801Z,19.40
2023-07-15T01:06:56.774Z,19.39
2023-07-15T01:09:25.815Z,19.33
2023-07-15T01:11:53.447Z,19.28
2023-07-15T01:14:21.207Z,19.35
2023-07-15T01:16:49.270Z,19.33
2023-07-15T01:19:20.160Z,19.27
2023-07-15T01:21:52.551Z,19.15
2023-07-15T01:24:22.158Z,19.15
2023-07-15T01:26:56.805Z,19.16
2023-07-15T01:29:24.266Z,19.10
2023-07-15T01:31:52.050Z,19.03
2023-07-15T01:34:21.108Z,19.07
2023-07-15T01:36:49.832Z,19.06
2023-07-15T01:39:18.015Z,18.90
2023-07-15T01:41:46.201Z,18.96
2023-07-15T01:44:15.774Z,18.99
2023-07-15T01:46:43.629Z,18.96
2023-07-15T01:49:11.499Z,18.97
2023-07-15T01:51:38.674Z,18.95
2023-07-15T01:54:06.374Z,18.99
2023-07-15T01:56:35.335Z,18.90
2023-07-15T01:59:02.471Z,18.94
2023-07-15T02:01:31.524Z,18.88
2023-07-15T02:03:59.614Z,18.88
2023-07-15T02:06:27.269Z,18.84
2023-07-15T02:08:56.616Z,18.76
2023-07-15T02:11:25.568Z,18.78
2023-07-15T02:13:53.005Z,18.87
2023-07-15T02:16:20.734Z,18.69
2023-07-15T02:18:51.755Z,18.72
2023-07-15T02:21:20.777Z,18.80
2023-07-15T02:23:48.815Z,19.08
2023-07-15T02:26:16.927Z,19.17
2023-07-15T02:28:44.884Z,19.09
2023-07-15T02:31:12.782Z,19.05
2023-07-15T02:33:40.478Z,18.92
2023-07-15T02:36:08.537Z,18.86
2023-07-15T02:38:36.352Z,18.96
2023-07-15T02:41:04.080Z,18.96
2023-07-15T02:43:33.302Z,19.07
2023-07-15T02:46:00.856Z,18.97
2023-07-15T02:48:28.037Z,18.76
2023-07-15T02:50:58.901Z,18.88
2023-07-15T02:53:27.543Z,19.06
2023-07-15T02:55:55.943Z,19.04
2023-07-15T02:58:24.221Z,19.10
2023-07-15T03:00:55.524Z,19.00
2023-07-15T03:03:23.335Z,18.89
2023-07-15T03:05:52.654Z,18.97
2023-07-15T03:08:21.222Z,19.03
2023-07-15T03:10:51.039Z,19.10
2023-07-15T03:13:19.602Z,19.20
2023-07-15T03:15:46.915Z,19.06
2023-07-15T03:18:14.900Z,19.17
2023-07-15T03:20:42.618Z,19.04
2023-07-15T03:23:13.067Z,18.98
2023-07-15T03:25:40.929Z,19.21
2023-07-15T03:28:08.018Z,19.12
2023-07-15T03:30:35.176Z,19.07
2023-07-15T03:33:02.990Z,19.18
2023-07-15T03:35:30.819Z,19.02
2023-07-15T03:37:58.016Z,18.99
2023-07-15T03:40:25.612Z,19.07
2023-07-15T03:42:52.769Z,19.41
2023-07-15T03:45:20.209Z,19.42
2023-07-15T03:47:47.736Z,19.84
2023-07-15T03:50:15.794Z,20.45
2023-07-15T03:52:43.472Z,20.36
2023-07-15T03:55:11.287Z,20.28
2023-07-15T03:57:39.249Z,20.06
2023-07-15T04:00:15.210Z,19.76
2023-07-15T04:02:46.353Z,19.69
2023-07-15T04:05:14.206Z,19.63
2023-07-15T04:07:42.119Z,20.02
2023-07-15T04:10:10.370Z,19.93
2023-07-15T04:12:37.906Z,20.21
2023-07-15T04:15:06.848Z,21.52
2023-07-15T04:17:34.313Z,22.40
2023-07-15T04:20:01.918Z,21.96
2023-07-15T04:22:31.067Z,22.76
2023-07-15T04:24:58.576Z,22.10
2023-07-15T04:27:25.675Z,24.80
2023-07-15T04:29:53.815Z,26.55
2023-07-15T04:32:20.908Z,25.98
2023-07-15T04:34:51.498Z,23.92
2023-07-15T04:37:19.078Z,24.06
2023-07-15T04:39:46.261Z,27.60
2023-07-15T04:42:13.849Z,29.51
2023-07-15T04:44:41.503Z,28.95
2023-07-15T04:47:09.278Z,29.22
2023-07-15T04:49:37.389Z,30.80
2023-07-15T04:52:05.520Z,33.08
2023-07-15T04:54:32.775Z,34.14
2023-07-15T04:56:59.876Z,35.17
2023-07-15T04:59:27.689Z,36.64
2023-07-15T05:01:54.909Z,37.60
2023-07-15T05:04:22.538Z,37.55
2023-07-15T05:06:50.106Z,36.24
2023-07-15T05:09:18.032Z,37.06
2023-07-15T05:11:45.955Z,37.47
2023-07-15T05:14:13.668Z,36.08
2023-07-15T05:16:44.670Z,36.66
2023-07-15T05:19:12.895Z,38.35
2023-07-15T05:21:40.013Z,40.10
2023-07-15T05:24:08.240Z,40.00
2023-07-15T05:26:36.080Z,39.53
2023-07-15T05:29:04.422Z,39.79
2023-07-15T05:31:35.495Z,40.96
2023-07-15T05:34:05.618Z,40.04
2023-07-15T05:36:33.271Z,40.98
2023-07-15T05:39:00.836Z,40.71
2023-07-15T05:41:28.981Z,40.35
2023-07-15T05:43:56.989Z,38.10
2023-07-15T05:46:24.921Z,37.39
2023-07-15T05:48:52.922Z,36.93
2023-07-15T05:51:20.415Z,37.27
2023-07-15T05:53:48.471Z,38.14
2023-07-15T05:56:16.735Z,38.08
2023-07-15T05:58:44.491Z,39.71
2023-07-15T06:01:15.616Z,40.63
2023-07-15T06:03:43.639Z,39.78
2023-07-15T06:06:11.978Z,39.85
2023-07-15T06:08:39.862Z,40.51
2023-07-15T06:11:07.629Z,40.68
2023-07-15T06:13:35.148Z,41.71
2023-07-15T06:16:03.152Z,41.54
2023-07-15T06:18:30.464Z,42.67
2023-07-15T06:20:58.260Z,42.77
2023-07-15T06:23:26.462Z,42.85
2023-07-15T06:25:53.811Z,42.39
2023-07-15T06:28:20.982Z,42.47
2023-07-15T06:30:50.554Z,42.44
2023-07-15T06:33:18.471Z,42.22
2023-07-15T06:35:46.812Z,44.05
2023-07-15T06:38:14.772Z,42.48
2023-07-15T06:40:43.399Z,42.44
2023-07-15T06:43:11.828Z,43.19
2023-07-15T06:45:40.183Z,44.37
2023-07-15T06:48:07.426Z,42.21
2023-07-15T06:50:35.162Z,43.43
2023-07-15T06:53:02.818Z,42.81
2023-07-15T06:55:30.579Z,42.64
2023-07-15T06:57:58.352Z,43.29
2023-07-15T07:00:26.324Z,42.60
2023-07-15T07:02:54.346Z,41.14
2023-07-15T07:05:22.313Z,41.31
2023-07-15T07:07:50.208Z,42.15
2023-07-15T07:10:21.661Z,41.98
2023-07-15T07:12:49.413Z,42.27
2023-07-15T07:15:17.241Z,43.66
2023-07-15T07:17:45.283Z,42.85
2023-07-15T07:20:13.393Z,42.41
2023-07-15T07:22:41.076Z,42.18
2023-07-15T07:25:09.347Z,42.80
2023-07-15T07:27:36.446Z,42.96
2023-07-15T07:30:04.497Z,43.44
2023-07-15T07:32:32.226Z,43.24
2023-07-15T07:34:59.504Z,43.12
2023-07-15T07:37:27.092Z,42.66
2023-07-15T07:39:54.927Z,41.80
2023-07-15T07:42:22.339Z,40.94
2023-07-15T07:44:50.151Z,41.52
2023-07-15T07:47:17.851Z,41.07
2023-07-15T07:49:45.560Z,41.14
2023-07-15T07:52:15.935Z,41.32
2023-07-15T07:54:43.456Z,40.88
2023-07-15T07:57:15.520Z,39.99
2023-07-15T07:59:43.414Z,39.25
2023-07-15T08:02:14.358Z,39.14
2023-07-15T08:04:45.461Z,38.81
2023-07-15T08:07:13.453Z,38.62
2023-07-15T08:09:41.127Z,38.44
2023-07-15T08:12:11.787Z,38.51
2023-07-15T08:14:38.879Z,38.88
2023-07-15T08:17:05.910Z,37.91
2023-07-15T08:19:33.408Z,38.35
2023-07-15T08:22:00.980Z,38.17
2023-07-15T08:24:28.209Z,38.16
2023-07-15T08:26:55.904Z,38.82
2023-07-15T08:29:23.105Z,38.20
2023-07-15T08:31:50.912Z,38.50
2023-07-15T08:34:21.579Z,38.06
2023-07-15T08:36:49.949Z,37.59
2023-07-15T08:39:17.357Z,37.23
2023-07-15T08:41:45.745Z,38.05
2023-07-15T08:44:15.889Z,37.64
2023-07-15T08:46:44.889Z,35.24
2023-07-15T08:49:13.422Z,35.85
2023-07-15T08:51:40.732Z,36.32
2023-07-15T08:54:09.711Z,36.42
2023-07-15T08:56:38.907Z,35.95
2023-07-15T08:59:07.921Z,36.59
2023-07-15T09:01:38.754Z,36.22
2023-07-15T09:04:06.191Z,35.38
2023-07-15T09:06:34.208Z,35.74
2023-07-15T09:09:01.560Z,36.67
2023-07-15T09:11:44.104Z,36.65
2023-07-15T09:14:18.348Z,35.75
2023-07-15T09:16:46.439Z,35.03
2023-07-15T09:19:14.765Z,35.29
2023-07-15T09:22:04.961Z,35.23
2023-07-15T09:24:34.519Z,34.74
2023-07-15T09:27:03.662Z,35.07
2023-07-15T09:29:31.724Z,35.41
2023-07-15T09:32:00.190Z,35.48
2023-07-15T09:34:28.734Z,35.00
2023-07-15T09:36:57.150Z,33.91
2023-07-15T09:39:27.858Z,34.01
2023-07-15T09:42:06.955Z,34.74
2023-07-15T09:44:45.884Z,34.64
2023-07-15T09:47:13.547Z,34.66
2023-07-15T09:49:41.107Z,33.75
2023-07-15T09:52:08.629Z,33.65
2023-07-15T09:54:37.272Z,33.87
2023-07-15T09:57:14.688Z,34.54
2023-07-15T09:59:56.289Z,34.20
2023-07-15T10:02:59.933Z,33.92
2023-07-15T10:05:28.523Z,34.69
2023-07-15T10:07:56.754Z,34.89
2023-07-15T10:10:24.540Z,34.59
2023-07-15T10:12:52.020Z,34.22
2023-07-15T10:15:20.384Z,33.70
2023-07-15T10:17:50.456Z,34.35
2023-07-15T10:20:21.651Z,34.42
2023-07-15T10:22:56.147Z,34.56
2023-07-15T10:25:23.301Z,34.60
2023-07-15T10:27:50.598Z,34.70
2023-07-15T10:30:30.592Z,34.46
2023-07-15T10:33:10.265Z,34.37
2023-07-15T10:35:44.281Z,34.78
2023-07-15T10:38:33.221Z,34.70
2023-07-15T10:41:06.120Z,34.51
2023-07-15T10:43:41.901Z,33.61
2023-07-15T10:46:17.157Z,33.76
2023-07-15T10:48:46.249Z,32.98
2023-07-15T10:51:14.430Z,33.39
2023-07-15T10:53:42.084Z,33.44
2023-07-15T10:56:12.167Z,33.76
2023-07-15T10:58:42.132Z,33.44
2023-07-15T11:01:13.417Z,33.23
2023-07-15T11:03:43.157Z,33.23
2023-07-15T11:06:12.337Z,33.00
2023-07-15T11:08:42.373Z,33.13
2023-07-15T11:11:11.982Z,33.52
2023-07-15T11:13:42.594Z,33.46
2023-07-15T11:16:10.698Z,32.93
2023-07-15T11:18:38.707Z,33.21
2023-07-15T11:21:06.665Z,32.92
2023-07-15T11:23:34.911Z,32.85
2023-07-15T11:26:11.385Z,32.90
2023-07-15T11:28:52.042Z,32.74
2023-07-15T11:31:23.350Z,33.17
2023-07-15T11:33:53.396Z,32.67
2023-07-15T11:36:24.261Z,32.46
2023-07-15T11:38:51.698Z,32.66
2023-07-15T11:41:19.349Z,32.97
2023-07-15T11:43:50.690Z,33.05
2023-07-15T11:46:18.986Z,33.03
2023-07-15T11:48:47.597Z,32.95
2023-07-15T11:51:15.437Z,33.11
2023-07-15T11:53:46.402Z,33.06
2023-07-15T11:56:33.617Z,33.09
2023-07-15T11:59:01.117Z,33.33
2023-07-15T12:01:29.168Z,33.30
2023-07-15T12:03:56.646Z,33.68
2023-07-15T12:06:27.830Z,34.13
2023-07-15T12:09:16.178Z,33.57
2023-07-15T12:11:44.381Z,33.70
2023-07-15T12:14:13.478Z,33.74
2023-07-15T12:16:41.864Z,33.48
2023-07-15T12:19:16.103Z,33.49
2023-07-15T12:21:43.449Z,33.01
2023-07-15T12:24:10.714Z,33.24
2023-07-15T12:26:38.642Z,32.91
2023-07-15T12:29:05.732Z,33.46
2023-07-15T12:31:33.472Z,33.72
2023-07-15T12:34:01.040Z,33.72
2023-07-15T12:36:28.763Z,33.93
2023-07-15T12:38:56.517Z,33.64
2023-07-15T12:41:24.444Z,33.52
2023-07-15T12:43:51.644Z,33.56
2023-07-15T12:46:19.252Z,33.80
2023-07-15T12:48:46.733Z,33.15
2023-07-15T12:51:13.818Z,33.26
2023-07-15T12:53:41.486Z,33.38
2023-07-15T12:56:13.206Z,33.72
2023-07-15T12:58:41.610Z,33.81
2023-07-15T13:01:09.611Z,33.50
2023-07-15T13:03:36.840Z,33.31
2023-07-15T13:06:05.839Z,33.56
2023-07-15T13:08:33.214Z,33.39
2023-07-15T13:11:00.284Z,33.35
2023-07-15T13:13:27.963Z,33.75
2023-07-15T13:15:55.092Z,34.06
2023-07-15T13:18:22.740Z,33.93
2023-07-15T13:20:50.062Z,33.64
2023-07-15T13:23:17.331Z,33.44
2023-07-15T13:25:44.616Z,33.78
2023-07-15T13:28:11.684Z,33.85
2023-07-15T13:30:38.785Z,33.75
2023-07-15T13:33:07.152Z,33.62
2023-07-15T13:35:34.242Z,33.75
2023-07-15T13:38:01.320Z,33.62
2023-07-15T13:40:28.407Z,33.51
2023-07-15T13:42:56.041Z,33.42
2023-07-15T13:45:23.706Z,33.58
2023-07-15T13:47:54.170Z,33.49
2023-07-15T13:50:22.067Z,33.52
2023-07-15T13:52:49.635Z,33.17
2023-07-15T13:55:18.363Z,33.27
2023-07-15T13:57:46.614Z,33.18
2023-07-15T14:00:15.010Z,32.75
2023-07-15T14:02:43.226Z,33.11
2023-07-15T14:05:11.630Z,32.93
2023-07-15T14:07:39.419Z,33.03
2023-07-15T14:10:07.775Z,32.98
2023-07-15T14:12:35.137Z,33.06
2023-07-15T14:15:02.512Z,33.15
2023-07-15T14:17:30.365Z,33.12
2023-07-15T14:19:58.242Z,32.90
2023-07-15T14:22:38.677Z,33.17
2023-07-15T14:25:10.726Z,33.15
2023-07-15T14:27:37.860Z,32.92
2023-07-15T14:30:06.600Z,33.05
2023-07-15T14:32:34.490Z,33.05
2023-07-15T14:35:01.793Z,33.06
2023-07-15T14:37:29.613Z,33.24
2023-07-15T14:39:56.754Z,33.13
2023-07-15T14:42:23.795Z,33.16
2023-07-15T14:44:51.087Z,33.29
2023-07-15T14:47:18.753Z,33.30
2023-07-15T14:49:46.906Z,33.11
2023-07-15T14:52:13.977Z,33.08
2023-07-15T14:54:41.065Z,32.76
2023-07-15T14:57:08.313Z,33.18
2023-07-15T14:59:35.898Z,33.06
2023-07-15T15:02:03.076Z,32.93
2023-07-15T15:04:30.951Z,32.28
2023-07-15T15:06:58.082Z,32.30
2023-07-15T15:09:25.710Z,32.40
2023-07-15T15:11:53.159Z,32.53
2023-07-15T15:14:24.366Z,32.52
2023-07-15T15:16:52.330Z,32.43
2023-07-15T15:19:20.335Z,32.56
2023-07-15T15:21:47.744Z,32.43
2023-07-15T15:24:15.351Z,32.77
2023-07-15T15:26:43.950Z,32.72
2023-07-15T15:29:11.053Z,32.59
2023-07-15T15:31:41.818Z,32.57
2023-07-15T15:34:09.968Z,32.80
2023-07-15T15:36:39.449Z,32.65
2023-07-15T15:39:09.632Z,32.67
2023-07-15T15:41:36.855Z,32.54
2023-07-15T15:44:05.605Z,32.31
2023-07-15T15:46:32.871Z,32.23
2023-07-15T15:48:59.967Z,32.15
2023-07-15T15:51:27.050Z,32.19
2023-07-15T15:54:06.556Z,32.41
2023-07-15T15:56:39.071Z,32.54
2023-07-15T15:59:06.995Z,32.26
2023-07-15T16:01:35.268Z,32.21
2023-07-15T16:04:03.364Z,32.43
2023-07-15T16:06:31.381Z,32.33
2023-07-15T16:08:59.300Z,32.45
2023-07-15T16:11:26.552Z,32.44
2023-07-15T16:13:58.320Z,32.52
2023-07-15T16:16:25.506Z,32.40
2023-07-15T16:18:52.680Z,32.36
2023-07-15T16:21:20.167Z,32.69
2023-07-15T16:23:47.760Z,32.85
2023-07-15T16:26:14.812Z,32.52
2023-07-15T16:28:41.902Z,32.12
2023-07-15T16:31:08.986Z,32.41
2023-07-15T16:33:36.100Z,32.22
2023-07-15T16:36:03.676Z,32.15
2023-07-15T16:38:31.143Z,32.10
2023-07-15T16:40:59.686Z,32.23
2023-07-15T16:43:27.355Z,32.24
2023-07-15T16:45:58.814Z,32.00
2023-07-15T16:48:26.654Z,32.16
2023-07-15T16:50:53.924Z,31.98
2023-07-15T16:53:24.133Z,31.89
2023-07-15T16:55:51.858Z,31.79
2023-07-15T16:58:20.679Z,31.84
2023-07-15T17:00:48.393Z,31.88
2023-07-15T17:03:16.327Z,31.89
2023-07-15T17:05:43.924Z,31.82
2023-07-15T17:08:11.494Z,31.72
2023-07-15T17:10:38.632Z,31.77
2023-07-15T17:13:06.282Z,31.80
2023-07-15T17:15:34.071Z,31.86
2023-07-15T17:18:01.182Z,31.60
2023-07-15T17:20:28.933Z,31.54
2023-07-15T17:22:56.188Z,31.84
2023-07-15T17:25:23.704Z,31.71
2023-07-15T17:27:51.543Z,31.50
2023-07-15T17:30:19.554Z,31.43
2023-07-15T17:32:47.070Z,31.35
2023-07-15T17:35:15.153Z,31.19
2023-07-15T17:37:42.855Z,31.19
2023-07-15T17:40:11.017Z,31.14
2023-07-15T17:42:38.335Z,31.19
2023-07-15T17:45:07.087Z,31.13
2023-07-15T17:47:37.317Z,31.04
2023-07-15T17:50:06.344Z,30.91
2023-07-15T17:52:33.430Z,30.82
2023-07-15T17:55:09.932Z,30.73
2023-07-15T17:57:45.009Z,31.00
2023-07-15T18:00:13.182Z,30.76
2023-07-15T18:02:40.523Z,30.72
2023-07-15T18:05:08.659Z,30.64
2023-07-15T18:07:36.378Z,30.68
2023-07-15T18:10:04.988Z,30.65
2023-07-15T18:12:32.412Z,30.64
2023-07-15T18:14:59.584Z,30.70
2023-07-15T18:17:27.146Z,30.47
2023-07-15T18:19:54.884Z,30.39
2023-07-15T18:22:22.534Z,30.35
2023-07-15T18:24:51.646Z,30.29
2023-07-15T18:27:20.638Z,30.26
2023-07-15T18:29:48.544Z,30.20
2023-07-15T18:32:16.281Z,30.16
2023-07-15T18:34:44.374Z,30.16
2023-07-15T18:37:12.385Z,30.11
2023-07-15T18:39:40.037Z,29.95
2023-07-15T18:42:07.768Z,29.90
2023-07-15T18:44:35.171Z,29.91
2023-07-15T18:47:02.780Z,29.79
2023-07-15T18:49:30.555Z,29.73
2023-07-15T18:51:58.148Z,29.87
2023-07-15T18:54:25.599Z,29.77
2023-07-15T18:56:55.309Z,29.67
2023-07-15T18:59:27.619Z,29.59
2023-07-15T19:01:55.577Z,29.49
2023-07-15T19:04:24.104Z,29.32
2023-07-15T19:06:51.581Z,29.45
2023-07-15T19:09:19.958Z,29.33
2023-07-15T19:11:50.325Z,29.23
2023-07-15T19:14:20.811Z,29.29
2023-07-15T19:16:51.757Z,29.23
2023-07-15T19:19:19.378Z,29.38
2023-07-15T19:21:47.178Z,29.27
2023-07-15T19:24:15.361Z,29.13
2023-07-15T19:26:43.125Z,29.01
2023-07-15T19:29:10.895Z,29.10
2023-07-15T19:31:38.560Z,28.93
2023-07-15T19:34:06.052Z,28.81
2023-07-15T19:36:33.583Z,28.88
2023-07-15T19:39:00.818Z,28.85
2023-07-15T19:41:28.391Z,28.77
2023-07-15T19:43:56.369Z,28.74
2023-07-15T19:46:24.293Z,28.69
2023-07-15T19:48:51.968Z,28.67
2023-07-15T19:51:27.843Z,28.51
2023-07-15T19:54:06.546Z,28.48
2023-07-15T19:56:34.099Z,28.50
2023-07-15T19:59:03.579Z,28.52
2023-07-15T20:01:36.219Z,28.38
2023-07-15T20:04:04.785Z,28.28
2023-07-15T20:06:32.425Z,28.19
2023-07-15T20:09:00.496Z,28.13
2023-07-15T20:11:28.396Z,28.15
2023-07-15T20:13:56.082Z,28.09
2023-07-15T20:16:24.009Z,28.15
2023-07-15T20:18:51.130Z,27.87
2023-07-15T20:21:18.259Z,27.89
2023-07-15T20:23:46.018Z,27.99
2023-07-15T20:26:13.946Z,28.05
2023-07-15T20:28:42.052Z,27.93
2023-07-15T20:31:09.821Z,27.89
2023-07-15T20:33:37.627Z,27.74
2023-07-15T20:36:05.120Z,27.70
2023-07-15T20:38:32.639Z,27.73
2023-07-15T20:41:02.088Z,27.62
2023-07-15T20:43:32.060Z,27.73
2023-07-15T20:45:59.928Z,27.51
2023-07-15T20:48:27.685Z,27.51
2023-07-15T20:50:55.038Z,27.52
2023-07-15T20:53:22.557Z,27.46
2023-07-15T20:55:52.804Z,27.51
2023-07-15T20:58:20.781Z,27.43
2023-07-15T21:00:54.047Z,27.29
2023-07-15T21:03:21.997Z,27.22
2023-07-15T21:06:05.773Z,27.23
2023-07-15T21:08:34.170Z,27.12
2023-07-15T21:11:03.179Z,27.04
2023-07-15T21:13:31.211Z,27.13
2023-07-15T21:16:00.617Z,27.05
2023-07-15T21:18:28.971Z,27.07
2023-07-15T21:21:02.780Z,27.06
2023-07-15T21:23:31.512Z,27.08
2023-07-15T21:26:00.400Z,27.06
2023-07-15T21:28:40.453Z,26.99
2023-07-15T21:31:08.748Z,26.88
2023-07-15T21:33:37.408Z,26.96
2023-07-15T21:36:06.174Z,26.95
2023-07-15T21:38:34.868Z,26.88
2023-07-15T21:41:04.006Z,26.80
2023-07-15T21:43:34.820Z,26.91
2023-07-15T21:46:05.657Z,26.96
2023-07-15T21:48:33.740Z,26.70
2023-07-15T21:51:02.912Z,26.74
2023-07-15T21:53:30.933Z,26.63
2023-07-15T21:55:58.766Z,26.59
2023-07-15T21:58:26.968Z,26.62
2023-07-15T22:00:59.527Z,26.57
2023-07-15T22:03:27.863Z,26.53
2023-07-15T22:05:56.345Z,26.44
2023-07-15T22:08:24.114Z,26.44
2023-07-15T22:10:51.974Z,26.46
2023-07-15T22:13:19.411Z,26.53
2023-07-15T22:15:47.021Z,26.41
2023-07-15T22:18:29.832Z,26.31
2023-07-15T22:21:07.724Z,26.35
2023-07-15T22:23:35.465Z,26.38
2023-07-15T22:26:02.950Z,26.36
2023-07-15T22:28:30.059Z,26.37
2023-07-15T22:30:57.721Z,26.27
2023-07-15T22:33:25.121Z,26.21
2023-07-15T22:35:52.552Z,26.21
2023-07-15T22:38:20.117Z,26.17
2023-07-15T22:40:47.378Z,26.12
2023-07-15T22:43:15.226Z,26.11
2023-07-15T22:45:56.217Z,26.13
2023-07-15T22:48:27.006Z,26.09
2023-07-15T22:50:54.791Z,26.06
2023-07-15T22:53:24.069Z,26.09
2023-07-15T22:55:54.750Z,26.02
2023-07-15T22:58:22.571Z,26.08
2023-07-15T23:00:55.897Z,26.00
2023-07-15T23:03:25.662Z,25.93
2023-07-15T23:05:53.446Z,25.97
2023-07-15T23:08:21.155Z,25.83
2023-07-15T23:10:48.750Z,25.77
2023-07-15T23:13:16.683Z,25.80
2023-07-15T23:15:44.347Z,25.83
2023-07-15T23:18:11.970Z,25.89
2023-07-15T23:20:39.469Z,25.92
2023-07-15T23:23:16.238Z,25.82
2023-07-15T23:25:45.104Z,25.84
2023-07-15T23:28:12.796Z,25.77
2023-07-15T23:30:49.202Z,25.84
2023-07-15T23:33:22.864Z,25.67
2023-07-15T23:35:51.723Z,25.72
2023-07-15T23:38:19.306Z,25.69
2023-07-15T23:40:47.025Z,25.73
2023-07-15T23:43:15.095Z,25.68
2023-07-15T23:45:42.880Z,25.79
2023-07-15T23:48:12.394Z,25.63
2023-07-15T23:50:40.124Z,25.59
2023-07-15T23:53:07.850Z,25.54
2023-07-15T23:55:35.071Z,25.53
2023-07-15T23:58:02.496Z,25.47
